sensor_id;sensor_type;location;lat;lon;timestamp;temperature;humidity
29729;DHT22;20055;51.498;11.960;2022-09-14T00:01:17;18.30;99.90
29729;DHT22;20055;51.498;11.960;2022-09-14T00:03:44;18.20;99.90
29729;DHT22;20055;51.498;11.960;2022-09-14T00:06:13;18.20;99.90
29729;DHT22;20055;51.498;11.960;2022-09-14T00:08:40;18.10;99.90
29729;DHT22;20055;51.498;11.960;2022-09-14T00:11:12;18.00;99.90
29729;DHT22;20055;51.498;11.960;2022-09-14T00:13:40;17.90;99.90
29729;DHT22;20055;51.498;11.960;2022-09-14T00:16:20;17.80;99.90
29729;DHT22;20055;51.498;11.960;2022-09-14T00:19:00;17.80;99.90
29729;DHT22;20055;51.498;11.960;2022-09-14T00:21:35;17.80;99.90
29729;DHT22;20055;51.498;11.960;2022-09-14T00:24:03;17.70;99.90
29729;DHT22;20055;51.498;11.960;2022-09-14T00:26:30;17.50;99.90
29729;DHT22;20055;51.498;11.960;2022-09-14T00:28:57;17.40;99.90
29729;DHT22;20055;51.498;11.960;2022-09-14T00:31:24;17.30;99.90
29729;DHT22;20055;51.498;11.960;2022-09-14T00:33:51;17.20;99.90
29729;DHT22;20055;51.498;11.960;2022-09-14T00:36:26;17.10;99.90
29729;DHT22;20055;51.498;11.960;2022-09-14T00:38:53;17.20;99.90
29729;DHT22;20055;51.498;11.960;2022-09-14T00:41:29;17.20;99.90
29729;DHT22;20055;51.498;11.960;2022-09-14T00:46:46;17.20;99.90
29729;DHT22;20055;51.498;11.960;2022-09-14T00:49:25;17.00;99.90
29729;DHT22;20055;51.498;11.960;2022-09-14T00:54:50;16.80;99.90
29729;DHT22;20055;51.498;11.960;2022-09-14T00:57:18;16.80;99.90
29729;DHT22;20055;51.498;11.960;2022-09-14T00:59:47;16.90;99.90
29729;DHT22;20055;51.498;11.960;2022-09-14T01:02:15;16.90;99.90
29729;DHT22;20055;51.498;11.960;2022-09-14T01:04:42;16.90;99.90
29729;DHT22;20055;51.498;11.960;2022-09-14T01:07:33;16.90;99.90
29729;DHT22;20055;51.498;11.960;2022-09-14T01:16:19;16.70;99.90
29729;DHT22;20055;51.498;11.960;2022-09-14T01:19:01;16.80;99.90
29729;DHT22;20055;51.498;11.960;2022-09-14T01:21:34;16.80;99.90
29729;DHT22;20055;51.498;11.960;2022-09-14T01:32:10;16.80;99.90
29729;DHT22;20055;51.498;11.960;2022-09-14T01:34:45;16.90;99.90
29729;DHT22;20055;51.498;11.960;2022-09-14T01:37:20;16.90;99.90
29729;DHT22;20055;51.498;11.960;2022-09-14T01:40:13;16.90;99.90
29729;DHT22;20055;51.498;11.960;2022-09-14T01:42:42;17.00;99.90
29729;DHT22;20055;51.498;11.960;2022-09-14T01:45:12;17.00;99.90
29729;DHT22;20055;51.498;11.960;2022-09-14T01:48:02;17.10;99.90
29729;DHT22;20055;51.498;11.960;2022-09-14T01:50:39;17.00;99.90
29729;DHT22;20055;51.498;11.960;2022-09-14T01:53:16;17.00;99.90
29729;DHT22;20055;51.498;11.960;2022-09-14T01:55:50;17.00;99.90
29729;DHT22;20055;51.498;11.960;2022-09-14T01:58:29;16.90;99.90
29729;DHT22;20055;51.498;11.960;2022-09-14T02:00:58;16.80;99.90
29729;DHT22;20055;51.498;11.960;2022-09-14T02:03:40;16.70;99.90
29729;DHT22;20055;51.498;11.960;2022-09-14T02:06:18;16.70;99.90
29729;DHT22;20055;51.498;11.960;2022-09-14T02:08:44;16.60;99.90
29729;DHT22;20055;51.498;11.960;2022-09-14T02:11:12;16.60;99.90
29729;DHT22;20055;51.498;11.960;2022-09-14T02:13:38;16.50;99.90
29729;DHT22;20055;51.498;11.960;2022-09-14T02:16:04;16.50;99.90
29729;DHT22;20055;51.498;11.960;2022-09-14T02:18:31;16.40;99.90
29729;DHT22;20055;51.498;11.960;2022-09-14T02:21:01;16.40;99.90
29729;DHT22;20055;51.498;11.960;2022-09-14T02:23:27;16.40;99.90
29729;DHT22;20055;51.498;11.960;2022-09-14T02:25:54;16.40;99.90
29729;DHT22;20055;51.498;11.960;2022-09-14T02:28:20;16.40;99.90
29729;DHT22;20055;51.498;11.960;2022-09-14T02:34:05;16.40;99.90
29729;DHT22;20055;51.498;11.960;2022-09-14T02:39:05;16.40;99.90
29729;DHT22;20055;51.498;11.960;2022-09-14T02:41:37;16.30;99.90
29729;DHT22;20055;51.498;11.960;2022-09-14T02:44:13;16.30;99.90
29729;DHT22;20055;51.498;11.960;2022-09-14T02:49:37;16.30;99.90
29729;DHT22;20055;51.498;11.960;2022-09-14T02:52:14;16.30;99.90
29729;DHT22;20055;51.498;11.960;2022-09-14T02:57:21;16.20;99.90
29729;DHT22;20055;51.498;11.960;2022-09-14T02:59:48;16.20;99.90
29729;DHT22;20055;51.498;11.960;2022-09-14T03:02:14;16.20;99.90
29729;DHT22;20055;51.498;11.960;2022-09-14T03:04:40;16.10;99.90
29729;DHT22;20055;51.498;11.960;2022-09-14T03:07:07;16.00;99.90
29729;DHT22;20055;51.498;11.960;2022-09-14T03:09:33;16.10;99.90
29729;DHT22;20055;51.498;11.960;2022-09-14T03:12:00;16.00;99.90
29729;DHT22;20055;51.498;11.960;2022-09-14T03:14:27;16.00;99.90
29729;DHT22;20055;51.498;11.960;2022-09-14T03:16:53;15.90;99.90
29729;DHT22;20055;51.498;11.960;2022-09-14T03:19:19;16.00;99.90
29729;DHT22;20055;51.498;11.960;2022-09-14T03:21:46;16.00;99.90
29729;DHT22;20055;51.498;11.960;2022-09-14T03:24:12;16.00;99.90
29729;DHT22;20055;51.498;11.960;2022-09-14T03:26:38;16.10;99.90
29729;DHT22;20055;51.498;11.960;2022-09-14T03:29:05;16.10;99.90
29729;DHT22;20055;51.498;11.960;2022-09-14T03:31:32;16.10;99.90
29729;DHT22;20055;51.498;11.960;2022-09-14T03:34:00;16.10;99.90
29729;DHT22;20055;51.498;11.960;2022-09-14T03:36:28;16.10;99.90
29729;DHT22;20055;51.498;11.960;2022-09-14T03:38:56;16.20;99.90
29729;DHT22;20055;51.498;11.960;2022-09-14T03:41:23;16.10;99.90
29729;DHT22;20055;51.498;11.960;2022-09-14T03:43:49;16.10;99.90
29729;DHT22;20055;51.498;11.960;2022-09-14T03:46:18;16.10;99.90
29729;DHT22;20055;51.498;11.960;2022-09-14T03:48:48;16.20;99.90
29729;DHT22;20055;51.498;11.960;2022-09-14T03:51:15;16.20;99.90
29729;DHT22;20055;51.498;11.960;2022-09-14T03:53:42;16.10;99.90
29729;DHT22;20055;51.498;11.960;2022-09-14T03:56:14;16.10;99.90
29729;DHT22;20055;51.498;11.960;2022-09-14T03:58:42;15.90;99.90
29729;DHT22;20055;51.498;11.960;2022-09-14T04:01:11;15.90;99.90
29729;DHT22;20055;51.498;11.960;2022-09-14T04:03:39;15.90;99.90
29729;DHT22;20055;51.498;11.960;2022-09-14T04:06:05;16.10;99.90
29729;DHT22;20055;51.498;11.960;2022-09-14T04:08:34;15.80;99.90
29729;DHT22;20055;51.498;11.960;2022-09-14T04:11:08;15.80;99.90
29729;DHT22;20055;51.498;11.960;2022-09-14T04:13:36;15.80;99.90
29729;DHT22;20055;51.498;11.960;2022-09-14T04:16:03;15.70;99.90
29729;DHT22;20055;51.498;11.960;2022-09-14T04:18:30;15.70;99.90
29729;DHT22;20055;51.498;11.960;2022-09-14T04:21:00;15.70;99.90
29729;DHT22;20055;51.498;11.960;2022-09-14T04:23:27;15.80;99.90
29729;DHT22;20055;51.498;11.960;2022-09-14T04:25:54;15.90;99.90
29729;DHT22;20055;51.498;11.960;2022-09-14T04:28:21;15.90;99.90
29729;DHT22;20055;51.498;11.960;2022-09-14T04:30:55;16.00;99.90
29729;DHT22;20055;51.498;11.960;2022-09-14T04:33:21;16.00;99.90
29729;DHT22;20055;51.498;11.960;2022-09-14T04:35:55;16.10;99.90
29729;DHT22;20055;51.498;11.960;2022-09-14T04:38:22;16.10;99.90
29729;DHT22;20055;51.498;11.960;2022-09-14T04:40:49;16.20;99.90
29729;DHT22;20055;51.498;11.960;2022-09-14T04:43:15;16.50;99.90
29729;DHT22;20055;51.498;11.960;2022-09-14T04:45:41;16.60;99.90
29729;DHT22;20055;51.498;11.960;2022-09-14T04:48:07;16.70;99.90
29729;DHT22;20055;51.498;11.960;2022-09-14T04:50:34;16.60;99.90
29729;DHT22;20055;51.498;11.960;2022-09-14T04:53:01;16.60;99.90
29729;DHT22;20055;51.498;11.960;2022-09-14T04:55:28;16.60;99.90
29729;DHT22;20055;51.498;11.960;2022-09-14T04:57:54;16.50;99.90
29729;DHT22;20055;51.498;11.960;2022-09-14T05:00:21;16.40;99.90
29729;DHT22;20055;51.498;11.960;2022-09-14T05:02:47;16.40;99.90
29729;DHT22;20055;51.498;11.960;2022-09-14T05:05:13;16.40;99.90
29729;DHT22;20055;51.498;11.960;2022-09-14T05:07:40;16.40;99.90
29729;DHT22;20055;51.498;11.960;2022-09-14T05:10:06;16.20;99.90
29729;DHT22;20055;51.498;11.960;2022-09-14T05:12:33;16.20;99.90
29729;DHT22;20055;51.498;11.960;2022-09-14T05:15:00;16.20;99.90
29729;DHT22;20055;51.498;11.960;2022-09-14T05:17:26;16.20;99.90
29729;DHT22;20055;51.498;11.960;2022-09-14T05:19:52;16.20;99.90
29729;DHT22;20055;51.498;11.960;2022-09-14T05:22:19;16.20;99.90
29729;DHT22;20055;51.498;11.960;2022-09-14T05:24:46;16.20;99.90
29729;DHT22;20055;51.498;11.960;2022-09-14T05:27:12;16.10;99.90
29729;DHT22;20055;51.498;11.960;2022-09-14T05:29:38;16.20;99.90
29729;DHT22;20055;51.498;11.960;2022-09-14T05:32:05;16.20;99.90
29729;DHT22;20055;51.498;11.960;2022-09-14T05:34:32;16.30;99.90
29729;DHT22;20055;51.498;11.960;2022-09-14T05:36:58;16.30;99.90
29729;DHT22;20055;51.498;11.960;2022-09-14T05:39:24;16.30;99.90
29729;DHT22;20055;51.498;11.960;2022-09-14T05:41:51;16.30;99.90
29729;DHT22;20055;51.498;11.960;2022-09-14T05:44:17;16.40;99.90
29729;DHT22;20055;51.498;11.960;2022-09-14T05:46:43;16.40;99.90
29729;DHT22;20055;51.498;11.960;2022-09-14T05:49:09;16.40;99.90
29729;DHT22;20055;51.498;11.960;2022-09-14T05:51:35;16.50;99.90
29729;DHT22;20055;51.498;11.960;2022-09-14T05:54:02;16.50;99.90
29729;DHT22;20055;51.498;11.960;2022-09-14T05:56:34;16.50;99.90
29729;DHT22;20055;51.498;11.960;2022-09-14T05:59:00;16.50;99.90
29729;DHT22;20055;51.498;11.960;2022-09-14T06:01:29;16.50;99.90
29729;DHT22;20055;51.498;11.960;2022-09-14T06:03:59;16.50;99.90
29729;DHT22;20055;51.498;11.960;2022-09-14T06:06:27;16.50;99.90
29729;DHT22;20055;51.498;11.960;2022-09-14T06:08:55;16.70;99.90
29729;DHT22;20055;51.498;11.960;2022-09-14T06:11:27;16.80;99.90
29729;DHT22;20055;51.498;11.960;2022-09-14T06:13:55;16.90;99.90
29729;DHT22;20055;51.498;11.960;2022-09-14T06:16:23;16.70;99.90
29729;DHT22;20055;51.498;11.960;2022-09-14T06:18:49;16.80;99.90
29729;DHT22;20055;51.498;11.960;2022-09-14T06:21:18;16.90;99.90
29729;DHT22;20055;51.498;11.960;2022-09-14T06:23:46;17.00;99.90
29729;DHT22;20055;51.498;11.960;2022-09-14T06:26:13;17.10;99.90
29729;DHT22;20055;51.498;11.960;2022-09-14T06:28:39;17.10;99.90
29729;DHT22;20055;51.498;11.960;2022-09-14T06:31:06;17.10;99.90
29729;DHT22;20055;51.498;11.960;2022-09-14T06:33:33;17.10;99.90
29729;DHT22;20055;51.498;11.960;2022-09-14T06:36:05;17.10;99.90
29729;DHT22;20055;51.498;11.960;2022-09-14T06:38:35;17.10;99.90
29729;DHT22;20055;51.498;11.960;2022-09-14T06:41:04;17.10;99.90
29729;DHT22;20055;51.498;11.960;2022-09-14T06:43:33;17.10;99.90
29729;DHT22;20055;51.498;11.960;2022-09-14T06:48:37;16.90;99.90
29729;DHT22;20055;51.498;11.960;2022-09-14T06:53:44;16.80;99.90
29729;DHT22;20055;51.498;11.960;2022-09-14T06:56:12;16.90;99.90
29729;DHT22;20055;51.498;11.960;2022-09-14T06:58:38;17.00;99.90
29729;DHT22;20055;51.498;11.960;2022-09-14T07:01:07;17.00;99.90
29729;DHT22;20055;51.498;11.960;2022-09-14T07:03:36;17.20;99.90
29729;DHT22;20055;51.498;11.960;2022-09-14T07:06:13;17.20;99.90
29729;DHT22;20055;51.498;11.960;2022-09-14T07:08:39;17.40;99.90
29729;DHT22;20055;51.498;11.960;2022-09-14T07:11:08;17.20;99.90
29729;DHT22;20055;51.498;11.960;2022-09-14T07:13:35;17.40;99.90
29729;DHT22;20055;51.498;11.960;2022-09-14T07:16:02;17.20;99.90
29729;DHT22;20055;51.498;11.960;2022-09-14T07:18:29;17.40;99.90
29729;DHT22;20055;51.498;11.960;2022-09-14T07:21:07;17.30;99.90
29729;DHT22;20055;51.498;11.960;2022-09-14T07:23:38;17.50;99.90
29729;DHT22;20055;51.498;11.960;2022-09-14T07:26:07;17.50;99.90
29729;DHT22;20055;51.498;11.960;2022-09-14T07:28:35;17.40;99.90
29729;DHT22;20055;51.498;11.960;2022-09-14T07:31:02;17.40;99.90
29729;DHT22;20055;51.498;11.960;2022-09-14T07:33:28;17.50;99.90
29729;DHT22;20055;51.498;11.960;2022-09-14T07:36:06;17.50;99.90
29729;DHT22;20055;51.498;11.960;2022-09-14T07:38:33;17.30;99.90
29729;DHT22;20055;51.498;11.960;2022-09-14T07:41:00;17.30;99.90
29729;DHT22;20055;51.498;11.960;2022-09-14T07:43:27;17.40;99.90
29729;DHT22;20055;51.498;11.960;2022-09-14T07:45:53;17.60;99.90
29729;DHT22;20055;51.498;11.960;2022-09-14T07:48:19;17.70;99.90
29729;DHT22;20055;51.498;11.960;2022-09-14T07:50:46;17.60;99.90
29729;DHT22;20055;51.498;11.960;2022-09-14T07:53:12;17.50;99.90
29729;DHT22;20055;51.498;11.960;2022-09-14T07:55:39;17.60;99.90
29729;DHT22;20055;51.498;11.960;2022-09-14T07:58:06;18.00;99.90
29729;DHT22;20055;51.498;11.960;2022-09-14T08:00:32;18.10;99.90
29729;DHT22;20055;51.498;11.960;2022-09-14T08:02:59;18.20;99.90
29729;DHT22;20055;51.498;11.960;2022-09-14T08:05:25;17.70;99.90
29729;DHT22;20055;51.498;11.960;2022-09-14T08:07:54;17.60;99.90
29729;DHT22;20055;51.498;11.960;2022-09-14T08:10:22;17.40;99.90
29729;DHT22;20055;51.498;11.960;2022-09-14T08:12:53;17.40;99.90
29729;DHT22;20055;51.498;11.960;2022-09-14T08:15:20;18.70;99.90
29729;DHT22;20055;51.498;11.960;2022-09-14T08:17:48;17.70;99.90
29729;DHT22;20055;51.498;11.960;2022-09-14T08:20:15;17.60;99.90
29729;DHT22;20055;51.498;11.960;2022-09-14T08:22:44;17.60;99.90
29729;DHT22;20055;51.498;11.960;2022-09-14T08:25:11;17.70;99.90
29729;DHT22;20055;51.498;11.960;2022-09-14T08:27:37;17.60;99.90
29729;DHT22;20055;51.498;11.960;2022-09-14T08:30:04;17.50;99.90
29729;DHT22;20055;51.498;11.960;2022-09-14T08:32:30;17.80;99.90
29729;DHT22;20055;51.498;11.960;2022-09-14T08:34:57;17.60;99.90
29729;DHT22;20055;51.498;11.960;2022-09-14T08:37:23;17.30;99.90
29729;DHT22;20055;51.498;11.960;2022-09-14T08:39:49;17.40;99.90
29729;DHT22;20055;51.498;11.960;2022-09-14T08:42:18;17.70;99.90
29729;DHT22;20055;51.498;11.960;2022-09-14T08:47:28;17.60;99.90
29729;DHT22;20055;51.498;11.960;2022-09-14T08:52:45;17.70;99.90
29729;DHT22;20055;51.498;11.960;2022-09-14T08:55:32;17.70;99.90
29729;DHT22;20055;51.498;11.960;2022-09-14T09:00:56;18.10;99.90
29729;DHT22;20055;51.498;11.960;2022-09-14T09:06:37;18.30;99.90
29729;DHT22;20055;51.498;11.960;2022-09-14T09:11:42;18.70;99.90
29729;DHT22;20055;51.498;11.960;2022-09-14T09:14:20;19.00;99.90
29729;DHT22;20055;51.498;11.960;2022-09-14T09:16:51;18.60;99.90
29729;DHT22;20055;51.498;11.960;2022-09-14T09:19:25;18.60;99.90
29729;DHT22;20055;51.498;11.960;2022-09-14T09:21:53;18.50;99.90
29729;DHT22;20055;51.498;11.960;2022-09-14T09:24:38;18.40;99.90
29729;DHT22;20055;51.498;11.960;2022-09-14T09:27:13;18.30;99.90
29729;DHT22;20055;51.498;11.960;2022-09-14T09:29:40;18.30;99.90
29729;DHT22;20055;51.498;11.960;2022-09-14T09:32:17;18.50;99.90
29729;DHT22;20055;51.498;11.960;2022-09-14T09:35:05;18.60;99.90
29729;DHT22;20055;51.498;11.960;2022-09-14T09:37:44;18.50;99.90
29729;DHT22;20055;51.498;11.960;2022-09-14T09:40:18;18.70;99.90
29729;DHT22;20055;51.498;11.960;2022-09-14T09:48:13;18.90;99.90
29729;DHT22;20055;51.498;11.960;2022-09-14T09:53:37;18.70;99.90
29729;DHT22;20055;51.498;11.960;2022-09-14T09:56:05;18.90;99.90
29729;DHT22;20055;51.498;11.960;2022-09-14T09:58:36;18.70;99.90
29729;DHT22;20055;51.498;11.960;2022-09-14T10:01:27;18.60;99.90
29729;DHT22;20055;51.498;11.960;2022-09-14T10:04:02;18.60;99.90
29729;DHT22;20055;51.498;11.960;2022-09-14T10:06:29;18.30;99.90
29729;DHT22;20055;51.498;11.960;2022-09-14T10:08:56;18.10;99.90
29729;DHT22;20055;51.498;11.960;2022-09-14T10:13:54;17.80;99.90
29729;DHT22;20055;51.498;11.960;2022-09-14T10:16:20;17.60;99.90
29729;DHT22;20055;51.498;11.960;2022-09-14T10:18:49;17.90;99.90
29729;DHT22;20055;51.498;11.960;2022-09-14T10:21:20;17.30;99.90
29729;DHT22;20055;51.498;11.960;2022-09-14T10:24:16;17.20;99.90
29729;DHT22;20055;51.498;11.960;2022-09-14T10:26:44;17.40;99.90
29729;DHT22;20055;51.498;11.960;2022-09-14T10:32:03;17.40;99.90
29729;DHT22;20055;51.498;11.960;2022-09-14T10:34:30;17.20;99.90
29729;DHT22;20055;51.498;11.960;2022-09-14T10:37:31;17.30;99.90
29729;DHT22;20055;51.498;11.960;2022-09-14T10:40:21;17.50;99.90
29729;DHT22;20055;51.498;11.960;2022-09-14T10:43:16;17.40;99.90
29729;DHT22;20055;51.498;11.960;2022-09-14T10:45:49;17.40;99.90
29729;DHT22;20055;51.498;11.960;2022-09-14T10:57:21;17.20;99.90
29729;DHT22;20055;51.498;11.960;2022-09-14T10:59:55;17.20;99.90
29729;DHT22;20055;51.498;11.960;2022-09-14T11:10:37;17.60;99.90
29729;DHT22;20055;51.498;11.960;2022-09-14T11:13:40;17.70;99.90
29729;DHT22;20055;51.498;11.960;2022-09-14T11:19:21;17.80;99.90
29729;DHT22;20055;51.498;11.960;2022-09-14T11:21:50;17.80;99.90
29729;DHT22;20055;51.498;11.960;2022-09-14T11:27:03;17.80;99.90
29729;DHT22;20055;51.498;11.960;2022-09-14T11:29:33;17.60;99.90
29729;DHT22;20055;51.498;11.960;2022-09-14T11:37:54;17.90;99.90
29729;DHT22;20055;51.498;11.960;2022-09-14T11:40:31;18.30;99.90
29729;DHT22;20055;51.498;11.960;2022-09-14T11:43:04;18.40;99.90
29729;DHT22;20055;51.498;11.960;2022-09-14T11:45:35;18.60;99.90
29729;DHT22;20055;51.498;11.960;2022-09-14T11:48:14;18.70;99.90
29729;DHT22;20055;51.498;11.960;2022-09-14T11:50:44;18.80;99.90
29729;DHT22;20055;51.498;11.960;2022-09-14T11:53:13;18.90;99.90
29729;DHT22;20055;51.498;11.960;2022-09-14T11:55:46;19.00;99.90
29729;DHT22;20055;51.498;11.960;2022-09-14T11:58:19;18.80;99.90
29729;DHT22;20055;51.498;11.960;2022-09-14T12:11:54;17.80;99.90
29729;DHT22;20055;51.498;11.960;2022-09-14T12:19:27;17.50;99.90
29729;DHT22;20055;51.498;11.960;2022-09-14T12:21:53;17.50;99.90
29729;DHT22;20055;51.498;11.960;2022-09-14T12:24:21;17.50;99.90
29729;DHT22;20055;51.498;11.960;2022-09-14T12:26:48;17.30;99.90
29729;DHT22;20055;51.498;11.960;2022-09-14T12:29:30;17.30;99.90
29729;DHT22;20055;51.498;11.960;2022-09-14T12:32:00;17.30;99.90
29729;DHT22;20055;51.498;11.960;2022-09-14T12:34:28;17.30;99.90
29729;DHT22;20055;51.498;11.960;2022-09-14T12:37:27;17.50;99.90
29729;DHT22;20055;51.498;11.960;2022-09-14T12:42:45;17.50;99.90
29729;DHT22;20055;51.498;11.960;2022-09-14T12:45:49;17.40;99.90
29729;DHT22;20055;51.498;11.960;2022-09-14T12:59:15;18.30;99.90
29729;DHT22;20055;51.498;11.960;2022-09-14T13:04:31;18.10;99.90
29729;DHT22;20055;51.498;11.960;2022-09-14T13:07:03;17.80;99.90
29729;DHT22;20055;51.498;11.960;2022-09-14T13:09:31;17.70;99.90
29729;DHT22;20055;51.498;11.960;2022-09-14T13:12:06;17.80;99.90
29729;DHT22;20055;51.498;11.960;2022-09-14T13:14:39;17.80;99.90
29729;DHT22;20055;51.498;11.960;2022-09-14T13:17:12;17.80;99.90
29729;DHT22;20055;51.498;11.960;2022-09-14T13:19:39;17.60;99.90
29729;DHT22;20055;51.498;11.960;2022-09-14T13:22:21;17.70;99.90
29729;DHT22;20055;51.498;11.960;2022-09-14T13:24:48;17.90;99.90
29729;DHT22;20055;51.498;11.960;2022-09-14T13:27:23;18.00;99.90
29729;DHT22;20055;51.498;11.960;2022-09-14T13:32:40;18.10;99.90
29729;DHT22;20055;51.498;11.960;2022-09-14T13:35:15;18.10;99.90
29729;DHT22;20055;51.498;11.960;2022-09-14T13:37:42;18.00;99.90
29729;DHT22;20055;51.498;11.960;2022-09-14T13:40:11;17.90;99.90
29729;DHT22;20055;51.498;11.960;2022-09-14T13:42:38;17.80;99.90
29729;DHT22;20055;51.498;11.960;2022-09-14T13:45:06;17.70;99.90
29729;DHT22;20055;51.498;11.960;2022-09-14T13:47:32;17.80;99.90
29729;DHT22;20055;51.498;11.960;2022-09-14T13:49:59;17.80;99.90
29729;DHT22;20055;51.498;11.960;2022-09-14T13:52:27;17.70;99.90
29729;DHT22;20055;51.498;11.960;2022-09-14T13:55:20;17.50;99.90
29729;DHT22;20055;51.498;11.960;2022-09-14T14:05:57;17.20;99.90
29729;DHT22;20055;51.498;11.960;2022-09-14T14:08:34;17.20;99.90
29729;DHT22;20055;51.498;11.960;2022-09-14T14:11:05;17.10;99.90
29729;DHT22;20055;51.498;11.960;2022-09-14T14:13:33;17.10;99.90
29729;DHT22;20055;51.498;11.960;2022-09-14T14:16:21;16.90;99.90
29729;DHT22;20055;51.498;11.960;2022-09-14T14:18:51;16.70;99.90
29729;DHT22;20055;51.498;11.960;2022-09-14T14:23:47;16.60;99.90
29729;DHT22;20055;51.498;11.960;2022-09-14T14:26:18;16.90;99.90
29729;DHT22;20055;51.498;11.960;2022-09-14T14:28:46;16.70;99.90
29729;DHT22;20055;51.498;11.960;2022-09-14T14:31:15;16.70;99.90
29729;DHT22;20055;51.498;11.960;2022-09-14T14:33:49;16.80;99.90
29729;DHT22;20055;51.498;11.960;2022-09-14T14:36:17;16.90;99.90
29729;DHT22;20055;51.498;11.960;2022-09-14T14:38:45;16.90;99.90
29729;DHT22;20055;51.498;11.960;2022-09-14T14:41:15;17.10;99.90
29729;DHT22;20055;51.498;11.960;2022-09-14T14:43:43;17.10;99.90
29729;DHT22;20055;51.498;11.960;2022-09-14T14:46:11;16.40;99.90
29729;DHT22;20055;51.498;11.960;2022-09-14T14:48:38;17.00;99.90
29729;DHT22;20055;51.498;11.960;2022-09-14T14:51:04;17.20;99.90
29729;DHT22;20055;51.498;11.960;2022-09-14T14:53:31;17.20;99.90
29729;DHT22;20055;51.498;11.960;2022-09-14T14:55:57;17.10;99.90
29729;DHT22;20055;51.498;11.960;2022-09-14T14:58:23;17.10;99.90
29729;DHT22;20055;51.498;11.960;2022-09-14T15:00:50;17.10;99.90
29729;DHT22;20055;51.498;11.960;2022-09-14T15:03:17;17.00;99.90
29729;DHT22;20055;51.498;11.960;2022-09-14T15:05:46;17.00;99.90
29729;DHT22;20055;51.498;11.960;2022-09-14T15:08:15;16.90;99.90
29729;DHT22;20055;51.498;11.960;2022-09-14T15:10:42;17.00;99.90
29729;DHT22;20055;51.498;11.960;2022-09-14T15:13:09;17.00;99.90
29729;DHT22;20055;51.498;11.960;2022-09-14T15:15:39;16.90;99.90
29729;DHT22;20055;51.498;11.960;2022-09-14T15:18:06;16.80;99.90
29729;DHT22;20055;51.498;11.960;2022-09-14T15:20:33;16.70;99.90
29729;DHT22;20055;51.498;11.960;2022-09-14T15:23:00;16.80;99.90
29729;DHT22;20055;51.498;11.960;2022-09-14T15:25:26;15.90;99.90
29729;DHT22;20055;51.498;11.960;2022-09-14T15:27:52;16.80;99.90
29729;DHT22;20055;51.498;11.960;2022-09-14T15:30:18;16.70;99.90
29729;DHT22;20055;51.498;11.960;2022-09-14T15:32:45;16.60;99.90
29729;DHT22;20055;51.498;11.960;2022-09-14T15:35:12;16.50;99.90
29729;DHT22;20055;51.498;11.960;2022-09-14T15:37:39;16.60;99.90
29729;DHT22;20055;51.498;11.960;2022-09-14T15:40:06;16.50;99.90
29729;DHT22;20055;51.498;11.960;2022-09-14T15:42:32;16.40;99.90
29729;DHT22;20055;51.498;11.960;2022-09-14T15:44:58;16.40;99.90
29729;DHT22;20055;51.498;11.960;2022-09-14T15:47:25;16.30;99.90
29729;DHT22;20055;51.498;11.960;2022-09-14T15:49:51;16.50;99.90
29729;DHT22;20055;51.498;11.960;2022-09-14T15:52:17;16.60;99.90
29729;DHT22;20055;51.498;11.960;2022-09-14T15:54:44;16.70;99.90
29729;DHT22;20055;51.498;11.960;2022-09-14T15:57:11;16.80;99.90
29729;DHT22;20055;51.498;11.960;2022-09-14T15:59:37;16.90;99.90
29729;DHT22;20055;51.498;11.960;2022-09-14T16:02:04;16.80;99.90
29729;DHT22;20055;51.498;11.960;2022-09-14T16:04:37;16.80;99.90
29729;DHT22;20055;51.498;11.960;2022-09-14T16:07:05;16.70;99.90
29729;DHT22;20055;51.498;11.960;2022-09-14T16:09:36;16.30;99.90
29729;DHT22;20055;51.498;11.960;2022-09-14T16:12:03;16.40;99.90
29729;DHT22;20055;51.498;11.960;2022-09-14T16:14:29;16.30;99.90
29729;DHT22;20055;51.498;11.960;2022-09-14T16:16:56;16.20;99.90
29729;DHT22;20055;51.498;11.960;2022-09-14T16:19:22;16.20;99.90
29729;DHT22;20055;51.498;11.960;2022-09-14T16:21:48;16.30;99.90
29729;DHT22;20055;51.498;11.960;2022-09-14T16:24:16;16.30;99.90
29729;DHT22;20055;51.498;11.960;2022-09-14T16:26:44;16.30;99.90
29729;DHT22;20055;51.498;11.960;2022-09-14T16:29:13;16.30;99.90
29729;DHT22;20055;51.498;11.960;2022-09-14T16:31:41;16.10;99.90
29729;DHT22;20055;51.498;11.960;2022-09-14T16:34:12;16.00;99.90
29729;DHT22;20055;51.498;11.960;2022-09-14T16:36:39;15.90;99.90
29729;DHT22;20055;51.498;11.960;2022-09-14T16:39:09;15.90;99.90
29729;DHT22;20055;51.498;11.960;2022-09-14T16:41:36;15.90;99.90
29729;DHT22;20055;51.498;11.960;2022-09-14T16:44:04;15.90;99.90
29729;DHT22;20055;51.498;11.960;2022-09-14T16:46:32;15.90;99.90
29729;DHT22;20055;51.498;11.960;2022-09-14T16:48:59;16.00;99.90
29729;DHT22;20055;51.498;11.960;2022-09-14T16:51:27;16.00;99.90
29729;DHT22;20055;51.498;11.960;2022-09-14T16:53:53;15.90;99.90
29729;DHT22;20055;51.498;11.960;2022-09-14T16:56:25;16.00;99.90
29729;DHT22;20055;51.498;11.960;2022-09-14T16:58:53;16.10;99.90
29729;DHT22;20055;51.498;11.960;2022-09-14T17:01:28;16.10;99.90
29729;DHT22;20055;51.498;11.960;2022-09-14T17:03:56;16.20;99.90
29729;DHT22;20055;51.498;11.960;2022-09-14T17:06:26;16.20;99.90
29729;DHT22;20055;51.498;11.960;2022-09-14T17:08:54;16.10;99.90
29729;DHT22;20055;51.498;11.960;2022-09-14T17:11:21;16.00;99.90
29729;DHT22;20055;51.498;11.960;2022-09-14T17:13:47;16.00;99.90
29729;DHT22;20055;51.498;11.960;2022-09-14T17:16:16;15.90;99.90
29729;DHT22;20055;51.498;11.960;2022-09-14T17:18:45;15.20;99.90
29729;DHT22;20055;51.498;11.960;2022-09-14T17:21:16;15.80;99.90
29729;DHT22;20055;51.498;11.960;2022-09-14T17:23:43;15.80;99.90
29729;DHT22;20055;51.498;11.960;2022-09-14T17:26:11;15.90;99.90
29729;DHT22;20055;51.498;11.960;2022-09-14T17:28:38;15.80;99.90
29729;DHT22;20055;51.498;11.960;2022-09-14T17:31:06;15.80;99.90
29729;DHT22;20055;51.498;11.960;2022-09-14T17:33:33;15.70;99.90
29729;DHT22;20055;51.498;11.960;2022-09-14T17:36:02;15.60;99.90
29729;DHT22;20055;51.498;11.960;2022-09-14T17:38:32;15.50;99.90
29729;DHT22;20055;51.498;11.960;2022-09-14T17:41:08;15.50;99.90
29729;DHT22;20055;51.498;11.960;2022-09-14T17:43:35;15.40;99.90
29729;DHT22;20055;51.498;11.960;2022-09-14T17:46:03;15.50;99.90
29729;DHT22;20055;51.498;11.960;2022-09-14T17:48:36;15.50;99.90
29729;DHT22;20055;51.498;11.960;2022-09-14T17:51:14;15.40;99.90